Time;durP1;ratioP1;P1;durP2;ratioP2;P2;SDS_P1;SDS_P2;PMS_P1;PMS_P2;Temp;Humidity;BMP_temperature;BMP_pressure;BME280_temperature;BME280_humidity;BME280_pressure;Samples;Min_cycle;Max_cycle;Signal;HPM_P1;HPM_P2
2021/01/23 00:02:21;;;;;;;6.68;3.72;;;4.70;99.90;;;;;;5052147;28;20017;-76
2021/01/23 00:04:46;;;;;;;6.32;3.47;;;4.60;99.90;;;;;;5053469;28;20491;-76
2021/01/23 00:07:12;;;;;;;7.25;3.72;;;4.70;99.90;;;;;;5051462;28;20486;-77
2021/01/23 00:09:37;;;;;;;6.70;3.72;;;4.60;99.90;;;;;;5050554;28;20482;-76
2021/01/23 00:12:04;;;;;;;6.18;3.47;;;4.60;99.90;;;;;;5065605;28;20028;-76
2021/01/23 00:14:30;;;;;;;8.10;3.70;;;4.60;99.90;;;;;;5061331;28;20089;-77
2021/01/23 00:16:55;;;;;;;10.18;4.57;;;4.50;99.90;;;;;;5061184;28;20036;-77
2021/01/23 00:19:21;;;;;;;6.45;4.05;;;4.50;99.90;;;;;;5053266;28;20013;-77
2021/01/23 00:21:46;;;;;;;7.30;4.18;;;4.40;99.90;;;;;;5056160;28;20028;-79
2021/01/23 00:24:12;;;;;;;8.68;4.30;;;4.50;99.90;;;;;;5055550;28;20098;-83
2021/01/23 00:26:37;;;;;;;10.38;4.75;;;4.50;99.90;;;;;;5052517;28;20020;-79
2021/01/23 00:29:03;;;;;;;9.73;4.40;;;4.60;99.90;;;;;;5054384;28;20465;-78
2021/01/23 00:31:28;;;;;;;10.13;5.63;;;4.50;99.90;;;;;;5058820;28;20039;-78
2021/01/23 00:33:54;;;;;;;12.70;5.55;;;4.50;99.90;;;;;;5061735;28;20079;-78
2021/01/23 00:36:19;;;;;;;8.93;5.15;;;4.60;99.90;;;;;;5064735;28;20020;-77
2021/01/23 00:38:45;;;;;;;8.90;4.88;;;4.60;99.90;;;;;;5067135;28;20387;-77
2021/01/23 00:41:11;;;;;;;8.57;5.07;;;4.50;99.90;;;;;;5059836;28;20021;-78
2021/01/23 00:43:36;;;;;;;10.43;5.03;;;4.50;99.90;;;;;;5057639;28;20709;-78
2021/01/23 00:46:02;;;;;;;10.25;5.65;;;4.50;99.90;;;;;;5052408;28;20036;-78
2021/01/23 00:48:27;;;;;;;11.32;5.50;;;4.50;99.90;;;;;;5051124;28;20033;-77
2021/01/23 00:50:53;;;;;;;14.35;5.35;;;4.50;99.90;;;;;;5051680;28;20040;-78
2021/01/23 00:53:18;;;;;;;8.75;4.90;;;4.50;99.90;;;;;;5054892;28;20047;-78
2021/01/23 00:55:44;;;;;;;9.82;4.80;;;4.40;99.90;;;;;;5053937;28;20836;-77
2021/01/23 00:58:09;;;;;;;9.45;5.22;;;4.50;99.90;;;;;;5060680;28;20029;-78
2021/01/23 01:00:35;;;;;;;10.55;5.60;;;4.40;99.90;;;;;;5051985;28;20040;-77
2021/01/23 01:03:00;;;;;;;14.00;7.05;;;4.40;99.90;;;;;;5051231;28;20029;-77
2021/01/23 01:05:26;;;;;;;14.57;7.18;;;4.40;99.90;;;;;;5047987;28;20021;-77
2021/01/23 01:07:51;;;;;;;18.33;7.55;;;4.50;99.90;;;;;;5061112;28;20488;-77
2021/01/23 01:10:17;;;;;;;14.77;7.97;;;4.50;99.90;;;;;;5060993;28;20033;-77
2021/01/23 01:12:42;;;;;;;12.90;6.57;;;4.40;99.90;;;;;;5053325;28;20017;-77
2021/01/23 01:15:08;;;;;;;11.50;6.05;;;4.40;99.90;;;;;;5055206;28;20095;-77
2021/01/23 01:17:34;;;;;;;10.60;5.32;;;4.40;99.90;;;;;;5072691;28;20025;-77
2021/01/23 01:20:00;;;;;;;14.90;6.55;;;4.40;99.90;;;;;;5060042;28;20035;-77
2021/01/23 01:22:26;;;;;;;11.32;5.43;;;4.40;99.90;;;;;;5058202;28;20546;-77
2021/01/23 01:24:51;;;;;;;9.00;5.00;;;4.40;99.90;;;;;;5054366;28;20471;-76
2021/01/23 01:27:17;;;;;;;13.18;5.68;;;4.40;99.90;;;;;;5052936;28;20052;-76
2021/01/23 01:29:42;;;;;;;7.50;4.65;;;4.30;99.90;;;;;;5069543;28;20020;-77
2021/01/23 01:32:08;;;;;;;8.75;4.55;;;4.30;99.90;;;;;;5063132;28;20411;-77
2021/01/23 01:34:33;;;;;;;8.68;4.97;;;4.30;99.90;;;;;;5056262;28;20059;-77
2021/01/23 01:36:59;;;;;;;7.85;4.47;;;4.30;99.90;;;;;;5060665;28;20037;-76
2021/01/23 01:39:25;;;;;;;7.82;4.35;;;4.30;99.90;;;;;;5062560;28;20035;-77
2021/01/23 01:41:51;;;;;;;6.55;4.25;;;4.30;99.90;;;;;;5058884;28;20021;-77
2021/01/23 01:44:16;;;;;;;7.53;5.03;;;4.40;99.90;;;;;;5051942;28;20114;-76
2021/01/23 01:46:42;;;;;;;8.70;4.43;;;4.30;99.90;;;;;;5061098;28;20041;-77
2021/01/23 01:49:08;;;;;;;10.07;5.18;;;4.20;99.90;;;;;;5059713;28;20036;-77
2021/01/23 01:51:34;;;;;;;8.93;4.78;;;4.20;99.90;;;;;;5053495;28;20591;-77
2021/01/23 01:54:00;;;;;;;8.82;4.32;;;4.20;99.90;;;;;;5067263;28;20040;-77
2021/01/23 01:56:25;;;;;;;9.35;4.82;;;4.30;99.90;;;;;;5055951;28;20063;-76
2021/01/23 01:58:51;;;;;;;8.43;5.13;;;4.30;99.90;;;;;;5051118;28;20044;-77
2021/01/23 02:01:17;;;;;;;8.98;5.00;;;4.30;99.90;;;;;;5065626;28;20079;-76
2021/01/23 02:04:01;;;;;;;11.38;5.45;;;4.20;99.90;;;;;;5058161;28;20033;-77
2021/01/23 02:06:50;;;;;;;7.90;5.05;;;4.30;99.90;;;;;;5057429;28;20437;-76
2021/01/23 02:09:50;;;;;;;10.48;5.32;;;4.30;99.90;;;;;;5057695;28;20082;-76
2021/01/23 02:12:39;;;;;;;7.22;4.60;;;4.30;99.90;;;;;;5054239;28;20029;-77
2021/01/23 02:15:12;;;;;;;10.63;4.82;;;4.30;99.90;;;;;;5066733;28;20088;-76
2021/01/23 02:17:46;;;;;;;8.85;5.22;;;4.30;99.90;;;;;;5065673;28;20116;-76
2021/01/23 02:20:39;;;;;;;7.43;4.90;;;4.40;99.90;;;;;;5055867;28;20082;-76
2021/01/23 02:23:19;;;;;;;8.80;4.68;;;4.30;99.90;;;;;;5052395;28;20104;-76
2021/01/23 02:26:11;;;;;;;9.25;5.32;;;4.30;99.90;;;;;;5069232;28;20032;-77
2021/01/23 02:28:50;;;;;;;13.65;5.18;;;4.30;99.90;;;;;;5054722;28;20029;-76
2021/01/23 02:31:20;;;;;;;8.93;5.10;;;4.40;99.90;;;;;;5064129;28;20028;-76
2021/01/23 02:33:49;;;;;;;7.72;4.50;;;4.30;99.90;;;;;;5052044;28;20025;-76
2021/01/23 02:36:15;;;;;;;8.68;4.88;;;4.30;99.90;;;;;;5061116;28;20021;-77
2021/01/23 02:38:42;;;;;;;8.75;4.55;;;4.30;99.90;;;;;;5051674;28;20025;-76
2021/01/23 02:41:09;;;;;;;9.65;4.97;;;4.50;99.90;;;;;;5059228;28;20021;-76
2021/01/23 02:43:41;;;;;;;9.02;5.50;;;4.40;99.90;;;;;;5065415;28;20025;-77
2021/01/23 02:46:07;;;;;;;11.63;5.53;;;4.40;99.90;;;;;;5041633;28;482523;-76
2021/01/23 02:48:33;;;;;;;12.43;5.95;;;4.30;99.90;;;;;;5052047;28;20029;-76
2021/01/23 02:51:01;;;;;;;10.82;5.30;;;4.30;99.90;;;;;;5057654;28;20040;-76
2021/01/23 02:53:31;;;;;;;10.38;5.35;;;4.30;99.90;;;;;;5063243;28;20059;-76
2021/01/23 02:56:07;;;;;;;9.20;5.10;;;4.40;99.90;;;;;;5059223;28;20020;-76
2021/01/23 02:58:34;;;;;;;8.20;5.20;;;4.40;99.90;;;;;;5069682;28;20270;-76
2021/01/23 03:01:02;;;;;;;9.02;5.60;;;4.40;99.90;;;;;;5056027;28;20025;-76
2021/01/23 03:03:30;;;;;;;9.77;5.45;;;4.40;99.90;;;;;;5050497;28;20025;-76
2021/01/23 03:05:55;;;;;;;8.20;5.35;;;4.40;99.90;;;;;;5062199;28;20089;-77
2021/01/23 03:08:21;;;;;;;9.95;5.35;;;4.40;99.90;;;;;;5067729;28;20025;-77
2021/01/23 03:10:47;;;;;;;12.07;5.82;;;4.30;99.90;;;;;;5055087;28;20521;-76
2021/01/23 03:13:14;;;;;;;9.25;5.28;;;4.40;99.90;;;;;;5052682;28;20037;-76
2021/01/23 03:15:40;;;;;;;12.90;5.90;;;4.50;99.90;;;;;;5054798;28;20131;-77
2021/01/23 03:18:07;;;;;;;11.77;5.75;;;4.40;99.90;;;;;;5069101;28;20032;-76
2021/01/23 03:20:32;;;;;;;13.25;6.07;;;4.40;99.90;;;;;;5059833;28;20024;-76
2021/01/23 03:22:59;;;;;;;12.13;6.28;;;4.40;99.90;;;;;;5052682;28;20021;-77
2021/01/23 03:25:25;;;;;;;10.68;5.50;;;4.40;99.90;;;;;;5057186;28;20500;-76
2021/01/23 03:27:50;;;;;;;13.10;6.00;;;4.40;99.90;;;;;;5062115;28;20040;-76
2021/01/23 03:30:17;;;;;;;12.23;6.35;;;4.40;99.90;;;;;;5049954;28;20021;-76
2021/01/23 03:32:43;;;;;;;14.07;6.35;;;4.40;99.90;;;;;;5059521;28;20048;-76
2021/01/23 03:35:09;;;;;;;10.77;6.03;;;4.40;99.90;;;;;;5059607;28;20039;-76
2021/01/23 03:37:35;;;;;;;11.07;6.50;;;4.40;99.90;;;;;;5049682;28;20024;-76
2021/01/23 03:40:02;;;;;;;13.25;6.45;;;4.40;99.90;;;;;;5056623;28;20040;-76
2021/01/23 03:42:27;;;;;;;13.73;6.72;;;4.40;99.90;;;;;;5056201;28;20025;-76
2021/01/23 03:44:53;;;;;;;11.52;6.30;;;4.40;99.90;;;;;;5062398;28;20035;-76
2021/01/23 03:47:18;;;;;;;12.27;6.45;;;4.40;99.90;;;;;;5058614;28;20040;-76
2021/01/23 03:49:44;;;;;;;16.40;6.85;;;4.40;99.90;;;;;;5058753;28;20040;-77
2021/01/23 03:52:11;;;;;;;11.35;6.50;;;4.40;99.90;;;;;;5062398;28;20114;-76
2021/01/23 03:54:39;;;;;;;9.88;6.15;;;4.40;99.90;;;;;;5060296;28;20032;-77
2021/01/23 03:57:05;;;;;;;16.33;6.30;;;4.30;99.90;;;;;;5063418;28;20036;-76
2021/01/23 03:59:30;;;;;;;10.80;6.85;;;4.40;99.90;;;;;;5049490;28;20017;-76
2021/01/23 04:01:56;;;;;;;10.13;6.13;;;4.30;99.90;;;;;;5059317;28;20071;-76
2021/01/23 04:04:21;;;;;;;13.68;6.75;;;4.30;99.90;;;;;;5056121;28;20028;-77
2021/01/23 04:06:47;;;;;;;11.95;6.90;;;4.40;99.90;;;;;;5049335;28;20056;-76
2021/01/23 04:09:12;;;;;;;14.32;6.85;;;4.40;99.90;;;;;;5052738;28;20508;-76
2021/01/23 04:11:38;;;;;;;11.85;6.85;;;4.40;99.90;;;;;;5056981;28;20162;-76
2021/01/23 04:14:03;;;;;;;14.38;6.90;;;4.40;99.90;;;;;;5056351;28;20060;-77
2021/01/23 04:16:28;;;;;;;12.65;6.88;;;4.50;99.90;;;;;;5056813;28;20028;-76
2021/01/23 04:18:54;;;;;;;23.23;7.25;;;4.40;99.90;;;;;;5051470;28;20032;-77
2021/01/23 04:21:19;;;;;;;14.13;6.72;;;4.40;99.90;;;;;;5055551;28;20526;-76
2021/01/23 04:23:45;;;;;;;16.13;6.53;;;4.40;99.90;;;;;;5051764;28;20111;-77
2021/01/23 04:26:11;;;;;;;14.48;7.40;;;4.40;99.90;;;;;;5050821;28;20036;-77
2021/01/23 04:28:37;;;;;;;12.55;6.97;;;4.40;99.90;;;;;;5049491;28;20037;-77
2021/01/23 04:31:03;;;;;;;13.73;6.70;;;4.40;99.90;;;;;;5056017;28;20479;-76
2021/01/23 04:33:28;;;;;;;11.60;6.65;;;4.40;99.90;;;;;;5062355;28;20020;-76
2021/01/23 04:35:54;;;;;;;14.02;6.80;;;4.40;99.90;;;;;;5059663;28;20021;-77
2021/01/23 04:38:19;;;;;;;13.73;6.80;;;4.50;99.90;;;;;;5055642;28;20100;-77
2021/01/23 04:40:45;;;;;;;13.77;7.22;;;4.40;99.90;;;;;;5051443;28;20037;-77
2021/01/23 04:43:11;;;;;;;12.35;6.50;;;4.40;99.90;;;;;;5057737;28;20394;-77
2021/01/23 04:45:37;;;;;;;14.52;6.70;;;4.40;99.90;;;;;;5063641;28;20048;-76
2021/01/23 04:48:02;;;;;;;11.90;6.60;;;4.40;99.90;;;;;;5066820;28;20521;-77
2021/01/23 04:50:28;;;;;;;14.00;7.07;;;4.30;99.90;;;;;;5066408;28;20032;-77
2021/01/23 04:52:53;;;;;;;10.75;6.72;;;4.30;99.90;;;;;;5063756;28;20032;-77
2021/01/23 04:55:19;;;;;;;12.52;6.95;;;4.30;99.90;;;;;;5068285;28;20078;-77
2021/01/23 04:57:44;;;;;;;15.63;8.23;;;4.40;99.90;;;;;;5051171;28;20116;-77
2021/01/23 05:00:13;;;;;;;15.27;7.18;;;4.50;99.90;;;;;;5053877;28;20027;-77
2021/01/23 05:02:39;;;;;;;14.05;7.35;;;4.40;99.90;;;;;;5050561;28;20035;-77
2021/01/23 05:05:05;;;;;;;12.23;7.00;;;4.50;99.90;;;;;;5057265;28;20036;-77
2021/01/23 05:07:39;;;;;;;13.27;7.03;;;4.70;99.90;;;;;;5058488;28;20028;-76
2021/01/23 05:10:13;;;;;;;12.90;7.35;;;4.60;99.90;;;;;;5067374;28;20032;-77
2021/01/23 05:12:44;;;;;;;16.00;7.50;;;4.50;99.90;;;;;;5061462;28;20103;-77
2021/01/23 05:15:23;;;;;;;12.82;7.82;;;4.50;99.90;;;;;;5054797;28;20037;-77
2021/01/23 05:17:55;;;;;;;13.27;6.95;;;4.50;99.90;;;;;;5059372;28;20067;-77
2021/01/23 05:20:33;;;;;;;12.30;6.63;;;4.50;99.90;;;;;;5055678;28;20490;-76
2021/01/23 05:23:00;;;;;;;15.90;7.75;;;4.40;99.90;;;;;;5056373;28;20394;-77
2021/01/23 05:25:30;;;;;;;16.30;7.60;;;4.40;99.90;;;;;;5059744;28;20095;-77
2021/01/23 05:28:00;;;;;;;14.00;7.00;;;4.40;99.90;;;;;;5066962;28;20017;-76
2021/01/23 05:30:38;;;;;;;17.27;7.72;;;4.40;99.90;;;;;;5065699;28;20025;-77
2021/01/23 05:33:05;;;;;;;14.65;7.93;;;4.40;99.90;;;;;;5056808;28;20036;-76
2021/01/23 05:35:31;;;;;;;12.65;7.07;;;4.40;99.90;;;;;;5056327;28;20467;-77
2021/01/23 05:37:56;;;;;;;18.52;7.72;;;4.40;99.90;;;;;;5061202;28;20028;-77
2021/01/23 05:40:31;;;;;;;12.00;7.22;;;4.40;99.90;;;;;;5061066;28;20365;-76
2021/01/23 05:42:56;;;;;;;18.60;7.20;;;4.40;99.90;;;;;;5062640;28;20046;-76
2021/01/23 05:45:22;;;;;;;14.75;7.70;;;4.40;99.90;;;;;;5055904;28;20048;-77
2021/01/23 05:47:47;;;;;;;15.38;7.55;;;4.40;99.90;;;;;;5069712;28;20103;-77
2021/01/23 05:50:13;;;;;;;13.13;6.82;;;4.40;99.90;;;;;;5071466;28;20620;-76
2021/01/23 05:52:38;;;;;;;15.32;7.75;;;4.40;99.90;;;;;;5063492;28;20100;-77
2021/01/23 05:55:05;;;;;;;17.17;7.53;;;4.30;99.90;;;;;;5057449;28;20040;-77
2021/01/23 05:57:32;;;;;;;14.30;7.50;;;4.30;99.90;;;;;;5051748;28;20081;-77
2021/01/23 05:59:58;;;;;;;12.93;7.38;;;4.30;99.90;;;;;;5052114;28;20100;-76
2021/01/23 06:02:24;;;;;;;13.68;7.70;;;4.30;99.90;;;;;;5057959;28;20108;-77
2021/01/23 06:04:51;;;;;;;13.38;6.85;;;4.40;99.90;;;;;;5052867;28;20068;-77
2021/01/23 06:07:44;;;;;;;12.40;7.25;;;4.40;99.90;;;;;;5055320;28;20125;-76
2021/01/23 06:10:21;;;;;;;13.32;7.65;;;4.40;99.90;;;;;;5062793;28;20254;-76
2021/01/23 06:12:56;;;;;;;13.85;6.82;;;4.50;99.90;;;;;;5054799;28;20028;-77
2021/01/23 06:15:37;;;;;;;14.50;7.30;;;4.40;99.90;;;;;;5059142;28;20085;-77
2021/01/23 06:18:22;;;;;;;16.50;7.75;;;4.30;99.90;;;;;;5058064;28;20036;-76
2021/01/23 06:20:49;;;;;;;21.02;8.52;;;4.30;99.90;;;;;;5052384;28;20032;-77
2021/01/23 06:23:20;;;;;;;17.17;7.88;;;4.30;99.90;;;;;;5060274;28;20046;-76
2021/01/23 06:25:49;;;;;;;16.17;8.98;;;4.40;99.90;;;;;;5064357;28;20020;-77
2021/01/23 06:28:38;;;;;;;16.02;8.00;;;4.30;99.90;;;;;;5058533;28;20450;-77
2021/01/23 06:31:29;;;;;;;13.43;7.85;;;4.30;99.90;;;;;;5057394;28;20479;-76
2021/01/23 06:33:55;;;;;;;15.63;8.52;;;4.30;99.90;;;;;;5057956;28;20041;-77
2021/01/23 06:36:22;;;;;;;16.10;8.32;;;4.30;99.90;;;;;;5055876;28;20450;-76
2021/01/23 06:39:04;;;;;;;19.08;9.98;;;4.30;99.90;;;;;;5059139;28;20017;-76
2021/01/23 06:41:34;;;;;;;15.80;8.07;;;4.40;99.90;;;;;;5051339;28;20491;-77
2021/01/23 06:44:05;;;;;;;19.30;9.75;;;4.50;99.90;;;;;;5060564;28;20037;-76
2021/01/23 06:46:31;;;;;;;18.20;8.98;;;4.50;99.90;;;;;;5053959;28;20473;-77
2021/01/23 06:49:04;;;;;;;17.27;9.13;;;4.50;99.90;;;;;;5058452;28;20140;-77
2021/01/23 06:51:29;;;;;;;19.08;9.10;;;4.60;99.90;;;;;;5050886;28;20056;-76
2021/01/23 06:54:17;;;;;;;18.90;9.73;;;4.60;99.90;;;;;;5056352;28;20504;-77
2021/01/23 06:56:43;;;;;;;20.13;9.60;;;4.60;99.90;;;;;;5063778;28;20021;-77
2021/01/23 06:59:30;;;;;;;20.35;9.23;;;4.70;99.90;;;;;;5064288;28;20028;-76
2021/01/23 07:01:56;;;;;;;16.95;8.75;;;4.70;99.90;;;;;;5066673;28;20025;-76
2021/01/23 07:04:21;;;;;;;19.27;9.60;;;4.60;99.90;;;;;;5075111;28;20028;-77
2021/01/23 07:06:47;;;;;;;17.83;9.40;;;4.60;99.90;;;;;;5056997;28;20483;-77
2021/01/23 07:09:18;;;;;;;17.63;9.38;;;4.60;99.90;;;;;;5054964;28;20033;-76
2021/01/23 07:11:43;;;;;;;;;;;4.60;99.90;;;;;;5067009;28;20059;-76
2021/01/23 07:14:09;;;;;;;16.27;9.48;;;4.60;99.90;;;;;;5054218;28;20375;-77
2021/01/23 07:16:37;;;;;;;15.00;8.73;;;4.60;99.90;;;;;;5053349;28;20498;-77
2021/01/23 07:19:08;;;;;;;15.50;8.65;;;4.60;99.90;;;;;;5052362;28;20024;-77
2021/01/23 07:21:38;;;;;;;22.83;9.20;;;4.60;99.90;;;;;;5049062;28;20036;-76
2021/01/23 07:24:03;;;;;;;15.45;8.60;;;4.60;99.90;;;;;;5054995;28;20437;-77
2021/01/23 07:26:31;;;;;;;13.88;8.63;;;4.60;99.90;;;;;;5069182;28;20105;-77
2021/01/23 07:28:58;;;;;;;15.07;8.50;;;4.70;99.90;;;;;;5063774;28;20044;-76
2021/01/23 07:31:29;;;;;;;17.20;9.18;;;4.70;99.90;;;;;;5050546;28;20051;-77
2021/01/23 07:33:56;;;;;;;15.43;8.98;;;4.60;99.90;;;;;;5049993;28;20021;-77
2021/01/23 07:36:41;;;;;;;15.18;8.75;;;4.70;99.90;;;;;;5055652;28;20029;-77
2021/01/23 07:39:18;;;;;;;13.85;8.52;;;4.70;99.90;;;;;;5063999;28;20414;-77
2021/01/23 07:41:49;;;;;;;18.08;9.38;;;4.80;99.90;;;;;;5051695;28;20029;-77
2021/01/23 07:44:15;;;;;;;15.55;8.75;;;4.70;99.90;;;;;;5051941;28;20052;-77
2021/01/23 07:46:45;;;;;;;18.40;9.70;;;4.80;99.90;;;;;;5055131;28;20060;-77
2021/01/23 07:49:25;;;;;;;15.88;9.23;;;4.80;99.90;;;;;;5052170;28;20037;-77
2021/01/23 07:51:52;;;;;;;18.00;8.93;;;4.70;99.90;;;;;;5059981;28;20032;-77
2021/01/23 07:54:17;;;;;;;15.95;8.90;;;4.70;99.90;;;;;;5052769;28;20024;-77
2021/01/23 07:56:56;;;;;;;19.10;8.82;;;4.70;99.90;;;;;;5054817;28;20047;-77
2021/01/23 07:59:44;;;;;;;17.25;9.95;;;4.80;99.90;;;;;;5049281;28;20021;-77
2021/01/23 08:02:10;;;;;;;16.30;8.63;;;4.80;99.90;;;;;;5050656;28;20491;-77
2021/01/23 08:04:37;;;;;;;15.60;8.88;;;4.80;99.90;;;;;;5065300;28;20043;-77
2021/01/23 08:07:24;;;;;;;13.63;9.00;;;4.80;99.90;;;;;;5059733;28;20495;-77
2021/01/23 08:10:08;;;;;;;16.23;8.35;;;4.80;99.90;;;;;;5061149;28;20029;-77
2021/01/23 08:12:38;;;;;;;19.25;9.48;;;4.90;99.90;;;;;;5063214;28;20025;-77
2021/01/23 08:15:06;;;;;;;14.52;8.77;;;4.80;99.90;;;;;;5062176;28;20115;-76
2021/01/23 08:17:43;;;;;;;17.85;8.88;;;4.80;99.90;;;;;;5050296;28;20040;-77
2021/01/23 08:20:30;;;;;;;17.17;8.88;;;4.90;99.90;;;;;;5062774;28;20033;-76
2021/01/23 08:22:56;;;;;;;14.73;7.47;;;4.80;99.90;;;;;;5048639;28;20116;-76
2021/01/23 08:25:24;;;;;;;12.23;7.13;;;4.80;99.90;;;;;;5063010;28;20037;-76
2021/01/23 08:27:49;;;;;;;12.95;7.32;;;4.90;99.90;;;;;;5062770;28;20107;-77
2021/01/23 08:30:16;;;;;;;15.20;6.78;;;4.90;99.90;;;;;;5051136;28;20121;-77
2021/01/23 08:32:41;;;;;;;16.30;7.63;;;4.80;99.90;;;;;;5053947;28;20122;-76
2021/01/23 08:35:07;;;;;;;12.50;6.63;;;4.80;99.90;;;;;;5057301;28;20562;-76
2021/01/23 08:37:33;;;;;;;14.30;7.18;;;4.70;99.90;;;;;;5051902;28;20107;-73
2021/01/23 08:39:58;;;;;;;13.98;6.40;;;4.70;99.90;;;;;;5055789;28;20100;-81
2021/01/23 08:42:24;;;;;;;27.00;11.10;;;4.70;99.90;;;;;;5057006;28;20473;-80
2021/01/23 08:44:50;;;;;;;43.03;17.88;;;4.70;99.90;;;;;;5057037;28;20024;-80
2021/01/23 08:47:16;;;;;;;26.80;11.90;;;4.70;99.90;;;;;;5051440;28;20404;-78
2021/01/23 08:49:41;;;;;;;38.95;16.08;;;4.60;99.90;;;;;;5060473;28;20032;-86
2021/01/23 08:52:08;;;;;;;34.30;12.80;;;4.60;99.90;;;;;;5055997;28;20025;-77
2021/01/23 08:54:34;;;;;;;22.90;9.93;;;4.60;99.90;;;;;;5051424;28;20052;-76
2021/01/23 08:56:59;;;;;;;32.75;15.20;;;4.60;99.90;;;;;;5061089;28;20384;-76
2021/01/23 08:59:25;;;;;;;21.60;10.25;;;4.50;99.90;;;;;;5059952;28;20103;-76
2021/01/23 09:01:50;;;;;;;16.63;8.80;;;4.60;99.90;;;;;;5057409;28;20020;-77
2021/01/23 09:04:16;;;;;;;20.23;8.35;;;4.50;99.90;;;;;;5056070;28;20029;-77
2021/01/23 09:06:43;;;;;;;18.08;7.90;;;4.50;99.90;;;;;;5057540;28;20035;-78
2021/01/23 09:09:10;;;;;;;11.45;6.88;;;4.40;99.90;;;;;;5062521;28;20016;-78
2021/01/23 09:12:14;;;;;;;15.20;7.13;;;4.40;99.90;;;;;;5058338;28;20478;-79
2021/01/23 09:14:40;;;;;;;15.20;7.88;;;4.40;99.90;;;;;;5055524;28;20106;-79
2021/01/23 09:17:06;;;;;;;17.20;7.97;;;4.40;99.90;;;;;;5060494;28;20449;-79
2021/01/23 09:19:31;;;;;;;14.90;7.82;;;4.40;99.90;;;;;;5072261;28;20017;-77
2021/01/23 09:21:57;;;;;;;16.60;8.68;;;4.40;99.90;;;;;;5059486;28;20029;-77
2021/01/23 09:24:22;;;;;;;17.08;7.88;;;4.30;99.90;;;;;;5067449;28;20025;-77
2021/01/23 09:26:48;;;;;;;13.23;7.60;;;4.30;99.90;;;;;;5079061;28;20021;-82
2021/01/23 09:29:13;;;;;;;13.93;7.88;;;4.20;99.90;;;;;;5062635;28;20025;-77
2021/01/23 09:31:39;;;;;;;17.58;8.77;;;4.20;99.90;;;;;;5051807;28;20025;-76
2021/01/23 09:34:06;;;;;;;16.30;8.98;;;4.20;99.90;;;;;;5054120;28;20503;-76
2021/01/23 09:36:32;;;;;;;24.40;10.82;;;4.10;99.90;;;;;;5063135;28;20054;-78
2021/01/23 09:38:57;;;;;;;21.95;10.40;;;4.10;99.90;;;;;;5072319;28;20017;-78
2021/01/23 09:41:23;;;;;;;21.27;9.20;;;4.10;99.90;;;;;;5071361;28;20098;-78
2021/01/23 09:43:49;;;;;;;20.98;9.70;;;4.10;99.90;;;;;;5056927;28;20109;-78
2021/01/23 09:46:14;;;;;;;18.67;9.57;;;4.10;99.90;;;;;;5063332;28;20048;-79
2021/01/23 09:48:40;;;;;;;19.83;8.98;;;4.10;99.90;;;;;;5059453;28;20033;-80
2021/01/23 09:51:05;;;;;;;17.90;9.40;;;4.20;99.90;;;;;;5051570;28;20071;-79
2021/01/23 09:53:31;;;;;;;18.50;9.52;;;4.20;99.90;;;;;;5059691;28;20079;-78
2021/01/23 09:55:56;;;;;;;16.20;9.32;;;4.20;99.90;;;;;;5061920;28;20411;-79
2021/01/23 09:58:22;;;;;;;15.52;8.70;;;4.20;99.90;;;;;;5061053;28;20052;-79
2021/01/23 10:00:47;;;;;;;16.98;9.10;;;4.30;99.90;;;;;;5053273;28;20036;-78
2021/01/23 10:03:14;;;;;;;19.85;9.07;;;4.40;99.90;;;;;;5063119;28;20021;-76
2021/01/23 10:05:39;;;;;;;18.00;8.50;;;4.30;99.90;;;;;;5060264;28;20100;-76
2021/01/23 10:08:05;;;;;;;16.02;8.23;;;4.30;99.90;;;;;;5056941;28;20305;-74
2021/01/23 10:10:31;;;;;;;17.13;8.63;;;4.30;99.90;;;;;;5063102;28;20024;-77
2021/01/23 10:12:57;;;;;;;19.33;9.10;;;4.30;99.90;;;;;;5054144;28;20465;-75
2021/01/23 10:15:22;;;;;;;16.55;8.32;;;4.40;99.90;;;;;;5055997;28;20033;-75
2021/01/23 10:17:48;;;;;;;16.40;8.30;;;4.40;99.90;;;;;;5056338;28;20056;-75
2021/01/23 10:20:13;;;;;;;14.60;7.80;;;4.40;99.90;;;;;;5062913;28;20056;-75
2021/01/23 10:22:39;;;;;;;19.42;8.73;;;4.50;99.90;;;;;;5067478;28;20150;-76
2021/01/23 10:25:05;;;;;;;18.20;8.43;;;4.40;99.90;;;;;;5060324;28;20044;-76
2021/01/23 10:27:31;;;;;;;16.38;8.48;;;4.40;99.90;;;;;;5053979;28;20119;-76
2021/01/23 10:29:57;;;;;;;18.42;8.60;;;4.40;99.90;;;;;;5051999;28;20119;-76
2021/01/23 10:32:22;;;;;;;15.85;7.88;;;4.40;99.90;;;;;;5051136;28;20036;-78
2021/01/23 10:34:48;;;;;;;15.57;8.10;;;4.40;99.90;;;;;;5057459;28;20127;-75
2021/01/23 10:37:13;;;;;;;15.98;8.15;;;4.40;99.90;;;;;;5061551;28;20476;-77
2021/01/23 10:39:39;;;;;;;15.45;7.57;;;4.50;99.90;;;;;;5060396;28;20573;-78
2021/01/23 10:42:04;;;;;;;15.43;7.70;;;4.60;99.90;;;;;;5059876;28;20494;-76
2021/01/23 10:44:30;;;;;;;19.90;8.20;;;4.50;99.90;;;;;;5064799;28;20035;-76
2021/01/23 10:46:55;;;;;;;17.15;8.88;;;4.60;99.90;;;;;;5065575;28;20102;-77
2021/01/23 10:49:21;;;;;;;14.48;7.85;;;4.50;99.90;;;;;;5059185;28;20033;-76
2021/01/23 10:51:48;;;;;;;16.73;8.55;;;4.60;99.90;;;;;;5063126;28;20068;-76
2021/01/23 10:54:13;;;;;;;17.90;8.60;;;4.60;99.90;;;;;;5056809;28;20032;-76
2021/01/23 10:56:39;;;;;;;18.95;8.95;;;4.60;99.90;;;;;;5054262;28;20020;-77
2021/01/23 10:59:04;;;;;;;18.40;8.65;;;4.50;99.90;;;;;;5054128;28;20056;-76
2021/01/23 11:01:30;;;;;;;17.85;9.27;;;4.60;99.90;;;;;;5058627;28;20104;-76
2021/01/23 11:03:56;;;;;;;15.43;8.23;;;4.60;99.90;;;;;;5067712;28;20029;-76
2021/01/23 11:06:22;;;;;;;15.68;8.38;;;4.60;99.90;;;;;;5057011;28;20352;-79
2021/01/23 11:08:48;;;;;;;14.90;7.78;;;4.60;99.90;;;;;;5056840;28;20029;-76
2021/01/23 11:11:14;;;;;;;13.95;7.30;;;4.60;99.90;;;;;;5067953;28;20430;-75
2021/01/23 11:13:39;;;;;;;14.75;8.05;;;4.60;99.90;;;;;;5054107;28;20028;-76
2021/01/23 11:16:05;;;;;;;16.70;7.50;;;4.70;99.90;;;;;;5056466;28;20040;-74
2021/01/23 11:18:30;;;;;;;17.80;6.82;;;4.70;99.90;;;;;;5050092;28;20021;-85
2021/01/23 11:20:56;;;;;;;13.45;6.45;;;4.70;99.90;;;;;;5057831;28;20036;-76
2021/01/23 11:23:21;;;;;;;10.57;6.07;;;4.80;99.90;;;;;;5061344;28;20403;-76
2021/01/23 11:25:47;;;;;;;14.55;6.15;;;4.80;99.90;;;;;;5057835;28;20021;-78
2021/01/23 11:28:12;;;;;;;11.48;4.93;;;4.80;99.90;;;;;;5049370;28;20479;-78
2021/01/23 11:30:38;;;;;;;10.70;4.85;;;4.80;99.90;;;;;;5052139;28;20127;-79
2021/01/23 11:33:03;;;;;;;9.82;4.93;;;4.80;99.90;;;;;;5061945;28;20021;-77
2021/01/23 11:35:29;;;;;;;7.63;4.35;;;4.80;99.90;;;;;;5056586;28;20029;-81
2021/01/23 11:37:54;;;;;;;10.07;4.82;;;4.80;99.90;;;;;;5062809;28;20040;-79
2021/01/23 11:40:20;;;;;;;10.43;4.72;;;4.90;99.90;;;;;;5059770;28;20032;-80
2021/01/23 11:42:45;;;;;;;10.95;4.50;;;4.90;99.90;;;;;;5064189;28;20029;-80
2021/01/23 11:45:11;;;;;;;8.63;3.97;;;4.90;99.90;;;;;;5063563;28;20076;-76
2021/01/23 11:47:37;;;;;;;10.10;3.88;;;4.90;99.90;;;;;;5063284;28;20066;-79
2021/01/23 11:50:04;;;;;;;12.13;4.20;;;4.90;99.90;;;;;;5065095;28;20028;-78
2021/01/23 11:52:29;;;;;;;8.77;4.13;;;5.00;99.90;;;;;;5062133;28;20035;-77
2021/01/23 11:54:55;;;;;;;10.98;4.22;;;5.00;99.90;;;;;;5063089;28;20024;-77
2021/01/23 11:57:20;;;;;;;12.00;4.70;;;4.90;99.90;;;;;;5063504;28;20107;-77
2021/01/23 11:59:46;;;;;;;12.23;4.90;;;5.00;99.90;;;;;;5065476;28;20028;-77
2021/01/23 12:02:11;;;;;;;9.35;4.72;;;5.00;99.90;;;;;;5065724;28;20471;-77
2021/01/23 12:04:40;;;;;;;16.55;5.70;;;5.00;99.90;;;;;;5063672;28;20035;-77
2021/01/23 12:07:05;;;;;;;9.98;5.10;;;5.00;99.90;;;;;;5065975;28;20064;-77
2021/01/23 12:09:31;;;;;;;8.75;5.25;;;5.10;99.90;;;;;;5063971;28;20048;-78
2021/01/23 12:11:56;;;;;;;12.50;5.43;;;5.20;99.90;;;;;;5065910;28;20040;-78
2021/01/23 12:14:22;;;;;;;14.45;5.75;;;5.20;99.90;;;;;;5061727;28;20163;-79
2021/01/23 12:16:47;;;;;;;9.05;4.82;;;5.20;99.90;;;;;;5064440;28;20213;-79
2021/01/23 12:19:13;;;;;;;9.55;4.93;;;5.30;99.90;;;;;;5064661;28;20032;-79
2021/01/23 12:21:38;;;;;;;14.52;5.50;;;5.30;99.90;;;;;;5066419;28;20020;-78
2021/01/23 12:24:04;;;;;;;12.20;4.72;;;5.40;99.90;;;;;;5063455;28;20033;-77
2021/01/23 12:26:30;;;;;;;17.27;5.82;;;5.30;99.90;;;;;;5060128;28;20045;-79
2021/01/23 12:28:56;;;;;;;17.00;5.68;;;5.40;99.90;;;;;;5064818;28;20036;-78
2021/01/23 12:31:21;;;;;;;12.30;6.32;;;5.40;99.90;;;;;;5063764;28;20021;-80
2021/01/23 12:33:47;;;;;;;15.23;6.72;;;5.60;99.90;;;;;;5064081;28;20036;-79
2021/01/23 12:36:13;;;;;;;11.18;6.30;;;5.70;99.90;;;;;;5063510;28;20017;-79
2021/01/23 12:38:39;;;;;;;23.83;7.45;;;5.70;99.90;;;;;;5063533;28;20012;-79
2021/01/23 12:41:05;;;;;;;16.27;7.72;;;5.50;99.90;;;;;;5063812;28;20487;-78
2021/01/23 12:43:30;;;;;;;25.02;10.43;;;5.50;99.90;;;;;;5065204;28;20027;-78
2021/01/23 12:45:56;;;;;;;22.27;11.20;;;5.50;99.90;;;;;;5063853;28;20041;-78
2021/01/23 12:48:22;;;;;;;25.05;10.75;;;5.40;99.90;;;;;;5066292;28;20032;-80
2021/01/23 12:50:51;;;;;;;26.25;11.50;;;5.50;99.90;;;;;;5069334;28;20072;-80
2021/01/23 12:53:17;;;;;;;24.63;11.63;;;5.40;99.90;;;;;;5070278;28;20036;-77